Time;durP1;ratioP1;P1;durP2;ratioP2;P2;SDS_P1;SDS_P2;PMS_P1;PMS_P2;Temp;Humidity;BMP_temperature;BMP_pressure;BME280_temperature;BME280_humidity;BME280_pressure;Samples;Min_cycle;Max_cycle;Signal;HPM_P1;HPM_P2
2021/05/28 00:00:40;;;;;;;2.17;1.17;;;;;;;;;;10328966;28;20048;-64
2021/05/28 00:05:37;;;;;;;7.20;1.57;;;;;;;;;;10329037;28;20120;-65
2021/05/28 00:10:35;;;;;;;2.07;0.93;;;;;;;;;;10322555;28;20032;-63
2021/05/28 00:15:33;;;;;;;3.73;0.80;;;;;;;;;;10324541;28;20091;-64
2021/05/28 00:20:30;;;;;;;2.22;1.13;;;;;;;;;;10331973;28;20338;-65
2021/05/28 00:25:29;;;;;;;3.17;1.13;;;;;;;;;;10321689;28;20098;-64
2021/05/28 00:30:26;;;;;;;2.25;1.05;;;;;;;;;;10342052;28;20032;-64
2021/05/28 00:35:25;;;;;;;;;;;;;;;;;;10321790;28;20132;-65
2021/05/28 00:40:22;;;;;;;4.95;1.15;;;;;;;;;;10327480;28;19999;-66
2021/05/28 00:45:20;;;;;;;4.67;1.50;;;;;;;;;;10334017;28;20037;-64
2021/05/28 00:50:17;;;;;;;6.43;1.73;;;;;;;;;;10341086;28;20033;-63
2021/05/28 00:55:14;;;;;;;6.20;2.17;;;;;;;;;;10326368;28;20387;-63
2021/05/28 01:00:12;;;;;;;11.03;2.77;;;;;;;;;;10326416;28;20037;-63
2021/05/28 01:05:10;;;;;;;4.17;1.87;;;;;;;;;;10333816;28;20562;-65
2021/05/28 01:10:08;;;;;;;4.53;1.97;;;;;;;;;;10324935;28;20061;-65
2021/05/28 01:15:07;;;;;;;4.15;1.23;;;;;;;;;;10318723;28;20078;-65
2021/05/28 01:20:04;;;;;;;;;;;;;;;;;;10351179;28;20040;-64
2021/05/28 01:25:03;;;;;;;1.77;1.30;;;;;;;;;;10370250;28;19935;-64
2021/05/28 01:30:01;;;;;;;4.70;1.40;;;;;;;;;;10328020;28;20028;-63
2021/05/28 01:34:58;;;;;;;2.90;1.37;;;;;;;;;;10327780;28;20083;-64
2021/05/28 01:39:56;;;;;;;2.63;1.80;;;;;;;;;;10322480;28;20037;-65
2021/05/28 01:44:53;;;;;;;3.23;1.43;;;;;;;;;;10325278;28;20494;-63
2021/05/28 01:49:51;;;;;;;3.03;1.37;;;;;;;;;;10335837;28;20137;-63
2021/05/28 01:54:49;;;;;;;2.90;1.60;;;;;;;;;;10333177;28;20041;-64
2021/05/28 01:59:46;;;;;;;3.27;1.57;;;;;;;;;;10329124;28;20508;-63
2021/05/28 02:04:44;;;;;;;2.03;1.30;;;;;;;;;;10328536;28;20471;-63
2021/05/28 02:09:41;;;;;;;4.63;1.73;;;;;;;;;;10339364;28;20032;-63
2021/05/28 02:14:38;;;;;;;4.80;2.13;;;;;;;;;;10347208;28;20025;-62
2021/05/28 02:19:36;;;;;;;5.00;1.80;;;;;;;;;;10342046;28;20041;-62
2021/05/28 02:24:33;;;;;;;2.97;1.50;;;;;;;;;;10333694;28;20025;-64
2021/05/28 02:29:31;;;;;;;4.23;2.17;;;;;;;;;;10352636;28;20017;-62
2021/05/28 02:34:28;;;;;;;2.80;1.77;;;;;;;;;;10339792;28;20382;-64
2021/05/28 02:39:26;;;;;;;4.30;1.70;;;;;;;;;;10350136;28;20033;-61
2021/05/28 02:44:23;;;;;;;4.90;2.47;;;;;;;;;;10348985;28;20082;-62
2021/05/28 02:49:20;;;;;;;2.73;1.63;;;;;;;;;;10347548;28;20064;-62
2021/05/28 02:54:18;;;;;;;2.60;2.13;;;;;;;;;;10349673;28;20394;-62
2021/05/28 02:59:15;;;;;;;6.10;2.87;;;;;;;;;;10349471;28;20571;-64
2021/05/28 03:04:14;;;;;;;7.03;2.23;;;;;;;;;;10341602;28;20513;-64
2021/05/28 03:09:11;;;;;;;;;;;;;;;;;;10349533;28;20090;-64
2021/05/28 03:14:08;;;;;;;3.03;2.13;;;;;;;;;;10346615;28;20381;-64
2021/05/28 03:19:14;;;;;;;5.37;2.57;;;;;;;;;;10348058;28;20124;-63
2021/05/28 03:24:11;;;;;;;4.22;2.70;;;;;;;;;;10348014;28;20040;-63
2021/05/28 03:29:08;;;;;;;6.63;3.07;;;;;;;;;;10346719;28;20036;-63
2021/05/28 03:34:06;;;;;;;4.57;2.83;;;;;;;;;;10347354;28;20034;-62
2021/05/28 03:39:04;;;;;;;5.97;2.73;;;;;;;;;;10341047;28;20029;-63
2021/05/28 03:44:02;;;;;;;6.82;2.78;;;;;;;;;;10347130;28;20082;-62
2021/05/28 03:48:59;;;;;;;5.00;2.50;;;;;;;;;;10346427;28;20108;-63
2021/05/28 03:53:57;;;;;;;3.80;2.23;;;;;;;;;;10347251;28;20036;-63
2021/05/28 03:58:54;;;;;;;3.87;2.83;;;;;;;;;;10347142;28;20450;-63
2021/05/28 04:03:51;;;;;;;3.47;1.90;;;;;;;;;;10346345;28;20498;-64
2021/05/28 04:08:49;;;;;;;6.67;2.43;;;;;;;;;;10346310;28;20446;-63
2021/05/28 04:13:46;;;;;;;4.27;2.50;;;;;;;;;;10346503;28;20048;-62
2021/05/28 04:18:43;;;;;;;9.07;2.10;;;;;;;;;;10346070;28;20050;-62
2021/05/28 04:23:41;;;;;;;3.23;2.30;;;;;;;;;;10346131;28;20152;-62
2021/05/28 04:28:38;;;;;;;3.97;1.70;;;;;;;;;;10342282;28;20445;-64
2021/05/28 04:33:36;;;;;;;6.93;2.77;;;;;;;;;;10344574;28;20114;-64
2021/05/28 04:38:33;;;;;;;5.97;2.57;;;;;;;;;;10343728;28;20127;-63
2021/05/28 04:43:31;;;;;;;5.37;2.10;;;;;;;;;;10282782;28;20072;-64
2021/05/28 04:48:28;;;;;;;9.43;3.07;;;;;;;;;;10297599;28;20044;-63
2021/05/28 04:53:25;;;;;;;6.93;3.67;;;;;;;;;;10312441;28;20037;-63
2021/05/28 04:58:23;;;;;;;5.20;2.20;;;;;;;;;;10318799;28;20056;-62
2021/05/28 05:03:20;;;;;;;8.57;2.70;;;;;;;;;;10318200;28;20152;-64
2021/05/28 05:08:18;;;;;;;5.23;3.27;;;;;;;;;;10329297;28;20041;-63
2021/05/28 05:13:15;;;;;;;3.90;2.13;;;;;;;;;;10317938;28;20037;-64
2021/05/28 05:18:13;;;;;;;3.80;2.13;;;;;;;;;;10331175;28;20087;-62
2021/05/28 05:23:10;;;;;;;5.67;2.43;;;;;;;;;;10327710;28;20063;-64
2021/05/28 05:28:07;;;;;;;8.27;2.70;;;;;;;;;;10328865;28;20078;-64
2021/05/28 05:33:05;;;;;;;7.23;2.03;;;;;;;;;;10323336;28;20128;-65
2021/05/28 05:38:07;;;;;;;8.70;2.70;;;;;;;;;;10314175;28;20041;-64
2021/05/28 05:43:05;;;;;;;6.15;2.60;;;;;;;;;;10330257;28;20025;-65
2021/05/28 05:48:03;;;;;;;8.83;2.30;;;;;;;;;;10321948;28;20139;-63
2021/05/28 05:53:00;;;;;;;10.73;2.97;;;;;;;;;;10312603;28;20375;-63
2021/05/28 05:57:58;;;;;;;4.63;2.13;;;;;;;;;;10316583;28;20048;-64
2021/05/28 06:02:55;;;;;;;3.90;2.40;;;;;;;;;;10321640;28;20033;-64
2021/05/28 06:07:52;;;;;;;6.43;2.57;;;;;;;;;;10324081;28;20111;-65
2021/05/28 06:12:50;;;;;;;8.17;2.80;;;;;;;;;;10314684;28;20092;-65
2021/05/28 06:17:47;;;;;;;7.73;2.73;;;;;;;;;;10308983;28;20037;-65
2021/05/28 06:22:47;;;;;;;3.33;2.97;;;;;;;;;;10322476;28;20036;-65
2021/05/28 06:27:44;;;;;;;6.47;2.67;;;;;;;;;;10317371;28;20049;-64
2021/05/28 06:32:42;;;;;;;5.87;2.27;;;;;;;;;;10312998;28;20033;-64
2021/05/28 06:37:39;;;;;;;4.20;2.47;;;;;;;;;;10327048;28;20059;-66
2021/05/28 06:42:37;;;;;;;4.27;2.47;;;;;;;;;;10327542;28;20032;-65
2021/05/28 06:47:34;;;;;;;5.87;2.93;;;;;;;;;;10306904;28;20036;-63
2021/05/28 06:52:32;;;;;;;6.60;2.57;;;;;;;;;;10320761;28;20398;-65
2021/05/28 06:57:30;;;;;;;7.15;2.35;;;;;;;;;;10322942;28;20087;-64
2021/05/28 07:02:27;;;;;;;9.27;2.30;;;;;;;;;;10314740;28;20189;-64
2021/05/28 07:07:25;;;;;;;8.37;2.47;;;;;;;;;;10324589;28;20040;-63
2021/05/28 07:12:22;;;;;;;9.00;2.67;;;;;;;;;;10318781;28;20041;-66
2021/05/28 07:17:20;;;;;;;3.93;2.17;;;;;;;;;;10311782;28;20057;-63
2021/05/28 07:22:17;;;;;;;5.07;2.27;;;;;;;;;;10309257;28;20037;-63
2021/05/28 07:27:15;;;;;;;5.00;2.20;;;;;;;;;;10321562;28;20102;-64
2021/05/28 07:32:13;;;;;;;8.53;2.13;;;;;;;;;;10306451;28;20597;-63
2021/05/28 07:37:11;;;;;;;4.00;2.22;;;;;;;;;;10308353;28;20278;-65
2021/05/28 07:42:08;;;;;;;3.13;1.57;;;;;;;;;;10317969;28;20041;-65
2021/05/28 07:47:07;;;;;;;8.87;3.00;;;;;;;;;;10311815;28;20037;-63
2021/05/28 07:52:05;;;;;;;4.00;1.80;;;;;;;;;;10329060;28;20120;-65
2021/05/28 07:57:06;;;;;;;4.73;2.00;;;;;;;;;;10320176;28;20128;-65
2021/05/28 08:02:04;;;;;;;9.27;2.40;;;;;;;;;;10318985;28;20537;-64
2021/05/28 08:07:01;;;;;;;4.70;2.13;;;;;;;;;;10322575;28;20037;-65
2021/05/28 08:11:58;;;;;;;2.47;1.63;;;;;;;;;;10321717;28;20040;-65
2021/05/28 08:16:56;;;;;;;6.00;1.90;;;;;;;;;;10317986;28;20036;-65
2021/05/28 08:21:53;;;;;;;3.63;1.33;;;;;;;;;;10331203;28;20037;-65
2021/05/28 08:26:51;;;;;;;3.37;2.03;;;;;;;;;;10322840;28;20060;-66
2021/05/28 08:31:48;;;;;;;3.47;2.40;;;;;;;;;;10314423;28;20093;-65
2021/05/28 08:36:45;;;;;;;3.13;1.20;;;;;;;;;;10316127;28;20398;-64
2021/05/28 08:41:43;;;;;;;2.93;2.03;;;;;;;;;;10326993;28;20498;-63
2021/05/28 08:46:40;;;;;;;2.17;0.80;;;;;;;;;;10323626;28;20029;-63
2021/05/28 08:51:38;;;;;;;3.30;1.97;;;;;;;;;;10321200;28;20045;-63
2021/05/28 08:56:35;;;;;;;2.30;1.37;;;;;;;;;;10311038;28;20524;-63
2021/05/28 09:01:33;;;;;;;4.80;1.97;;;;;;;;;;10316305;28;20029;-63
2021/05/28 09:06:44;;;;;;;1.88;0.93;;;;;;;;;;10319349;28;20131;-64
2021/05/28 09:11:51;;;;;;;10.45;1.83;;;;;;;;;;10307737;28;20049;-64
2021/05/28 09:16:49;;;;;;;7.80;2.10;;;;;;;;;;10322498;28;20045;-63
2021/05/28 09:21:53;;;;;;;4.03;1.80;;;;;;;;;;10315252;28;20041;-63
2021/05/28 09:26:51;;;;;;;7.90;2.58;;;;;;;;;;10320796;28;20820;-61
2021/05/28 09:31:48;;;;;;;5.43;0.53;;;;;;;;;;10340492;28;20056;-64
2021/05/28 09:36:46;;;;;;;5.13;1.57;;;;;;;;;;10320584;28;20032;-65
2021/05/28 09:41:48;;;;;;;4.80;1.50;;;;;;;;;;10321080;28;20041;-66
2021/05/28 09:47:03;;;;;;;5.35;1.73;;;;;;;;;;10333806;28;20522;-65
2021/05/28 09:52:13;;;;;;;2.83;1.02;;;;;;;;;;10311137;28;20041;-65
2021/05/28 09:57:25;;;;;;;3.70;1.88;;;;;;;;;;10320226;28;20048;-62
2021/05/28 10:02:45;;;;;;;3.25;1.17;;;;;;;;;;10314493;28;20085;-64
2021/05/28 10:07:41;;;;;;;4.85;1.23;;;;;;;;;;10318286;28;20566;-64
2021/05/28 10:12:39;;;;;;;3.22;1.50;;;;;;;;;;10320658;28;20032;-64
2021/05/28 10:17:36;;;;;;;8.30;2.17;;;;;;;;;;10310961;28;20465;-65
2021/05/28 10:22:34;;;;;;;4.07;1.87;;;;;;;;;;10325145;28;20037;-65
2021/05/28 10:27:32;;;;;;;3.90;1.38;;;;;;;;;;10316652;28;20025;-65
2021/05/28 10:32:29;;;;;;;2.55;1.38;;;;;;;;;;10314337;28;20032;-63
2021/05/28 10:37:28;;;;;;;4.83;1.27;;;;;;;;;;10299658;28;20037;-64
2021/05/28 10:42:25;;;;;;;1.80;0.65;;;;;;;;;;10291204;28;20140;-64
2021/05/28 10:47:23;;;;;;;8.27;1.83;;;;;;;;;;10302177;28;20029;-64
2021/05/28 10:52:30;;;;;;;2.63;1.13;;;;;;;;;;10312266;28;20041;-65
2021/05/28 10:57:32;;;;;;;3.10;1.02;;;;;;;;;;10329169;28;20284;-65
2021/05/28 11:02:47;;;;;;;3.35;1.15;;;;;;;;;;10324370;28;20512;-64
2021/05/28 11:07:46;;;;;;;1.77;0.93;;;;;;;;;;10326597;28;20049;-65
2021/05/28 11:12:43;;;;;;;2.33;1.00;;;;;;;;;;10322277;28;20494;-65
2021/05/28 11:17:49;;;;;;;2.53;0.83;;;;;;;;;;10301500;28;20064;-65
2021/05/28 11:22:47;;;;;;;2.42;0.90;;;;;;;;;;10332673;28;20036;-65
2021/05/28 11:27:46;;;;;;;0.53;0.53;;;;;;;;;;10325248;28;20045;-65
2021/05/28 11:32:44;;;;;;;4.53;1.52;;;;;;;;;;10305696;28;20033;-65
2021/05/28 11:37:42;;;;;;;1.02;0.85;;;;;;;;;;10322480;28;20045;-66
2021/05/28 11:42:41;;;;;;;4.97;1.33;;;;;;;;;;10334783;28;20037;-66
2021/05/28 11:47:38;;;;;;;1.88;1.55;;;;;;;;;;10314264;28;20032;-64
2021/05/28 11:52:37;;;;;;;0.82;0.55;;;;;;;;;;10302831;28;20040;-65
2021/05/28 11:57:35;;;;;;;3.30;1.20;;;;;;;;;;10315730;28;20029;-65
2021/05/28 12:02:35;;;;;;;1.90;0.88;;;;;;;;;;10307959;28;20550;-64
2021/05/28 12:07:33;;;;;;;4.50;1.60;;;;;;;;;;10314587;28;20025;-65
2021/05/28 12:12:49;;;;;;;2.13;1.23;;;;;;;;;;10304175;28;20031;-65
2021/05/28 12:17:46;;;;;;;1.77;1.05;;;;;;;;;;10320566;28;20039;-65
2021/05/28 12:22:56;;;;;;;3.80;1.10;;;;;;;;;;10318195;28;20025;-66
2021/05/28 12:27:54;;;;;;;1.95;1.10;;;;;;;;;;10308616;28;20114;-65
2021/05/28 12:32:52;;;;;;;2.28;0.90;;;;;;;;;;10307804;28;20120;-65
2021/05/28 12:37:49;;;;;;;;;;;;;;;;;;10289517;28;20080;-65
2021/05/28 12:42:53;;;;;;;5.50;2.35;;;;;;;;;;10318533;28;20028;-65
2021/05/28 12:47:52;;;;;;;2.92;1.20;;;;;;;;;;10299821;28;20044;-65
2021/05/28 12:52:56;;;;;;;3.65;1.45;;;;;;;;;;10306006;28;20037;-65
2021/05/28 12:57:53;;;;;;;4.35;1.35;;;;;;;;;;10313745;28;20061;-65
2021/05/28 13:02:50;;;;;;;2.53;1.33;;;;;;;;;;10308735;28;20533;-65
2021/05/28 13:07:48;;;;;;;5.43;1.37;;;;;;;;;;10309922;28;20120;-64
2021/05/28 13:12:45;;;;;;;4.00;1.27;;;;;;;;;;10313481;28;20037;-64
2021/05/28 13:17:51;;;;;;;1.33;0.60;;;;;;;;;;10317726;28;20104;-66
2021/05/28 13:22:49;;;;;;;1.88;1.27;;;;;;;;;;10328709;28;20045;-64
2021/05/28 13:27:49;;;;;;;0.98;0.73;;;;;;;;;;10316731;28;20040;-64
2021/05/28 13:32:46;;;;;;;0.60;0.40;;;;;;;;;;10295057;28;20033;-64
2021/05/28 13:37:44;;;;;;;1.80;1.33;;;;;;;;;;10314640;28;20033;-66
2021/05/28 13:42:59;;;;;;;1.90;0.57;;;;;;;;;;10306714;28;20068;-65
2021/05/28 13:48:15;;;;;;;0.93;0.60;;;;;;;;;;10312568;28;20094;-66
2021/05/28 13:53:44;;;;;;;1.10;0.30;;;;;;;;;;10306620;28;20049;-65
2021/05/28 13:58:58;;;;;;;3.47;0.57;;;;;;;;;;10315092;28;20064;-65
2021/05/28 14:03:56;;;;;;;2.30;0.90;;;;;;;;;;10311608;28;20056;-65
2021/05/28 14:08:53;;;;;;;0.73;0.63;;;;;;;;;;10331852;28;20037;-64
2021/05/28 14:13:50;;;;;;;1.40;0.83;;;;;;;;;;10319387;28;20029;-64
2021/05/28 14:18:48;;;;;;;2.20;0.70;;;;;;;;;;10308766;28;20041;-64
2021/05/28 14:23:45;;;;;;;2.60;0.90;;;;;;;;;;10319552;28;20592;-64
2021/05/28 14:28:43;;;;;;;4.65;1.42;;;;;;;;;;10323023;28;20056;-64
2021/05/28 14:33:52;;;;;;;0.83;0.83;;;;;;;;;;10314152;28;20588;-63
2021/05/28 14:38:51;;;;;;;1.23;0.90;;;;;;;;;;10312994;28;20037;-64
2021/05/28 14:43:49;;;;;;;1.60;1.23;;;;;;;;;;10333230;28;20067;-64
2021/05/28 14:48:47;;;;;;;1.52;1.05;;;;;;;;;;10327007;28;20108;-63
2021/05/28 14:53:44;;;;;;;1.30;1.20;;;;;;;;;;10304651;28;20029;-65
2021/05/28 14:58:42;;;;;;;1.37;1.03;;;;;;;;;;10300728;28;20067;-65
2021/05/28 15:03:39;;;;;;;3.53;1.20;;;;;;;;;;10291707;28;20283;-65
2021/05/28 15:08:37;;;;;;;5.03;1.53;;;;;;;;;;10335651;28;20283;-66
2021/05/28 15:13:34;;;;;;;0.83;0.80;;;;;;;;;;10306760;28;20049;-65
2021/05/28 15:18:32;;;;;;;3.57;1.23;;;;;;;;;;10312539;28;20045;-66
2021/05/28 15:23:29;;;;;;;2.72;1.02;;;;;;;;;;10327896;28;20091;-65
2021/05/28 15:28:27;;;;;;;1.90;0.80;;;;;;;;;;10318964;28;20446;-65
2021/05/28 15:33:24;;;;;;;4.20;1.02;;;;;;;;;;10332182;28;20120;-65
2021/05/28 15:38:22;;;;;;;5.13;1.43;;;;;;;;;;10315981;28;20143;-65
2021/05/28 15:43:19;;;;;;;4.13;1.37;;;;;;;;;;10308478;28;20072;-65
2021/05/28 15:48:16;;;;;;;8.77;3.00;;;;;;;;;;10306076;28;20033;-65
2021/05/28 15:53:15;;;;;;;11.10;2.67;;;;;;;;;;10307612;28;20025;-65
2021/05/28 15:58:14;;;;;;;3.53;1.45;;;;;;;;;;10302726;28;20120;-65
2021/05/28 16:03:13;;;;;;;3.22;0.82;;;;;;;;;;10307368;28;20529;-65
2021/05/28 16:08:13;;;;;;;4.88;1.40;;;;;;;;;;10329545;28;20044;-65
2021/05/28 16:13:10;;;;;;;1.90;1.00;;;;;;;;;;10311206;28;20037;-65
2021/05/28 16:18:08;;;;;;;1.53;1.30;;;;;;;;;;10313427;28;20086;-65
2021/05/28 16:23:08;;;;;;;1.92;1.17;;;;;;;;;;10339552;28;20087;-65
2021/05/28 16:28:06;;;;;;;2.95;1.00;;;;;;;;;;10318943;28;20513;-66
2021/05/28 16:33:03;;;;;;;3.55;1.15;;;;;;;;;;10314004;28;20060;-65
2021/05/28 16:38:01;;;;;;;1.43;1.10;;;;;;;;;;10310391;28;20036;-64
2021/05/28 16:42:59;;;;;;;0.67;0.67;;;;;;;;;;10299998;28;20052;-65
2021/05/28 16:47:56;;;;;;;1.13;1.03;;;;;;;;;;10300843;28;20047;-64
2021/05/28 16:52:53;;;;;;;2.87;1.53;;;;;;;;;;10316124;28;20136;-65
2021/05/28 16:57:51;;;;;;;1.63;0.90;;;;;;;;;;10311662;28;20593;-64
2021/05/28 17:02:48;;;;;;;4.70;1.63;;;;;;;;;;10310835;28;20652;-65
2021/05/28 17:07:46;;;;;;;1.93;1.13;;;;;;;;;;10315423;28;20410;-65
2021/05/28 17:12:44;;;;;;;3.85;1.42;;;;;;;;;;10308599;28;20091;-65
2021/05/28 17:17:41;;;;;;;3.83;2.30;;;;;;;;;;10321115;28;20049;-65
2021/05/28 17:22:39;;;;;;;2.10;1.90;;;;;;;;;;10318425;28;20048;-65
2021/05/28 17:27:40;;;;;;;2.67;1.37;;;;;;;;;;10325341;28;20079;-64
2021/05/28 17:32:38;;;;;;;5.15;1.63;;;;;;;;;;10300114;28;20045;-65
2021/05/28 17:37:35;;;;;;;;;;;;;;;;;;10310538;28;20291;-65
2021/05/28 17:42:33;;;;;;;3.63;1.63;;;;;;;;;;10331313;28;19928;-65
2021/05/28 17:47:30;;;;;;;1.53;1.43;;;;;;;;;;10305670;28;20049;-65
2021/05/28 17:52:28;;;;;;;1.90;1.30;;;;;;;;;;10319422;28;20090;-65
2021/05/28 17:57:25;;;;;;;1.50;1.23;;;;;;;;;;10327860;28;20045;-63
2021/05/28 18:02:24;;;;;;;8.33;1.63;;;;;;;;;;10316828;28;20075;-63
2021/05/28 18:07:22;;;;;;;3.83;1.45;;;;;;;;;;10312282;28;20103;-65
2021/05/28 18:12:19;;;;;;;3.37;1.47;;;;;;;;;;10312192;28;20102;-63
2021/05/28 18:17:17;;;;;;;4.40;1.87;;;;;;;;;;10297413;28;20613;-63
2021/05/28 18:22:14;;;;;;;3.77;2.03;;;;;;;;;;10322848;28;20449;-63
2021/05/28 18:27:12;;;;;;;2.33;1.80;;;;;;;;;;10322012;28;20593;-63
2021/05/28 18:32:09;;;;;;;6.50;2.03;;;;;;;;;;10321786;28;21073;-63
2021/05/28 18:37:06;;;;;;;6.83;3.20;;;;;;;;;;10334581;28;20041;-63
2021/05/28 18:42:04;;;;;;;1.57;1.00;;;;;;;;;;10304669;28;20393;-63
2021/05/28 18:47:02;;;;;;;2.07;1.17;;;;;;;;;;10326635;28;20068;-63
2021/05/28 18:52:00;;;;;;;5.82;3.05;;;;;;;;;;10322686;28;20229;-62
2021/05/28 18:56:57;;;;;;;5.70;3.23;;;;;;;;;;10328156;28;20383;-62
2021/05/28 19:01:55;;;;;;;0.47;0.47;;;;;;;;;;10295885;28;20048;-64
2021/05/28 19:06:53;;;;;;;4.47;1.37;;;;;;;;;;10330712;28;20091;-64
2021/05/28 19:11:50;;;;;;;4.90;2.13;;;;;;;;;;10299883;28;20041;-65
2021/05/28 19:16:48;;;;;;;4.87;2.13;;;;;;;;;;10334165;28;20048;-63
2021/05/28 19:21:46;;;;;;;3.23;1.47;;;;;;;;;;10311394;28;20045;-63
2021/05/28 19:26:44;;;;;;;4.47;1.45;;;;;;;;;;10328434;28;20035;-63
2021/05/28 19:31:42;;;;;;;4.30;2.23;;;;;;;;;;10331199;28;20524;-63
2021/05/28 19:36:39;;;;;;;1.88;1.05;;;;;;;;;;10323581;28;20052;-64
2021/05/28 19:41:37;;;;;;;3.07;1.60;;;;;;;;;;10331619;28;20120;-64
2021/05/28 19:46:35;;;;;;;1.05;1.05;;;;;;;;;;10313139;28;20117;-64
2021/05/28 19:51:34;;;;;;;4.47;2.73;;;;;;;;;;10328056;28;20557;-64
2021/05/28 19:56:31;;;;;;;6.47;2.42;;;;;;;;;;10313877;28;20041;-64
2021/05/28 20:01:31;;;;;;;5.33;2.37;;;;;;;;;;10288428;28;20087;-63
2021/05/28 20:06:28;;;;;;;4.47;2.95;;;;;;;;;;10308526;28;20044;-64
2021/05/28 20:11:35;;;;;;;6.87;3.53;;;;;;;;;;10303551;28;21371;-64
2021/05/28 20:16:33;;;;;;;3.63;1.67;;;;;;;;;;10326509;28;20532;-64
2021/05/28 20:21:31;;;;;;;1.23;1.15;;;;;;;;;;10296275;28;20112;-64
2021/05/28 20:26:32;;;;;;;1.10;0.98;;;;;;;;;;10324535;28;20041;-64
2021/05/28 20:31:29;;;;;;;4.85;1.95;;;;;;;;;;10318140;28;20210;-63
2021/05/28 20:36:27;;;;;;;1.60;0.93;;;;;;;;;;10318839;28;20122;-64
2021/05/28 20:41:24;;;;;;;2.10;1.37;;;;;;;;;;10317597;28;20036;-64
2021/05/28 20:46:22;;;;;;;2.03;1.50;;;;;;;;;;10325683;28;20044;-65
2021/05/28 20:51:19;;;;;;;0.93;0.80;;;;;;;;;;10323341;28;20087;-64
2021/05/28 20:56:32;;;;;;;3.30;1.47;;;;;;;;;;10321410;28;20059;-64
2021/05/28 21:01:31;;;;;;;4.30;1.45;;;;;;;;;;10303843;28;20041;-63
2021/05/28 21:06:29;;;;;;;3.30;2.25;;;;;;;;;;10324416;28;20044;-63
2021/05/28 21:11:26;;;;;;;3.80;2.00;;;;;;;;;;10309792;28;20051;-63
2021/05/28 21:16:24;;;;;;;11.90;1.60;;;;;;;;;;10328398;28;20174;-63
2021/05/28 21:21:21;;;;;;;5.93;2.17;;;;;;;;;;10301674;28;20044;-64
2021/05/28 21:26:19;;;;;;;6.93;2.17;;;;;;;;;;10342910;28;20052;-65
2021/05/28 21:31:16;;;;;;;3.20;2.07;;;;;;;;;;10320959;28;20036;-64
2021/05/28 21:36:14;;;;;;;3.60;2.37;;;;;;;;;;10357468;28;20051;-63
2021/05/28 21:41:11;;;;;;;3.08;2.03;;;;;;;;;;10356066;28;20497;-64
2021/05/28 21:46:09;;;;;;;7.57;4.20;;;;;;;;;;10340320;28;20412;-64
2021/05/28 21:51:06;;;;;;;3.83;2.33;;;;;;;;;;10328730;28;20193;-65
2021/05/28 21:56:05;;;;;;;9.87;3.83;;;;;;;;;;10353635;28;20064;-65
2021/05/28 22:01:04;;;;;;;8.52;2.67;;;;;;;;;;10339652;28;20029;-65
2021/05/28 22:06:02;;;;;;;6.68;3.70;;;;;;;;;;10330654;28;20026;-65
2021/05/28 22:10:59;;;;;;;7.30;4.00;;;;;;;;;;10341821;28;20028;-65
2021/05/28 22:15:57;;;;;;;4.80;3.30;;;;;;;;;;10328591;28;20044;-63
2021/05/28 22:20:54;;;;;;;10.87;3.70;;;;;;;;;;10322035;28;20033;-65
2021/05/28 22:25:52;;;;;;;5.90;3.37;;;;;;;;;;10382736;28;20037;-65
2021/05/28 22:36:06;;;;;;;7.32;5.00;;;;;;;;;;10357182;28;20037;-64
2021/05/28 22:41:04;;;;;;;7.60;3.80;;;;;;;;;;10343218;28;20466;-65
2021/05/28 22:51:10;;;;;;;6.10;2.25;;;;;;;;;;10323869;28;20060;-65
2021/05/28 22:56:08;;;;;;;4.90;1.80;;;;;;;;;;10332481;28;20498;-65
2021/05/28 23:01:07;;;;;;;6.32;2.67;;;;;;;;;;10330130;28;20086;-65
2021/05/28 23:06:04;;;;;;;4.57;1.77;;;;;;;;;;10331635;28;20036;-61
2021/05/28 23:11:02;;;;;;;1.83;1.30;;;;;;;;;;10336964;28;20457;-62
2021/05/28 23:16:00;;;;;;;3.83;2.47;;;;;;;;;;10343889;28;20616;-64
2021/05/28 23:20:57;;;;;;;1.77;1.13;;;;;;;;;;10346415;28;20657;-65
2021/05/28 23:25:55;;;;;;;0.97;0.93;;;;;;;;;;10340431;28;20382;-65
2021/05/28 23:30:52;;;;;;;3.63;2.27;;;;;;;;;;10324343;28;20395;-65
2021/05/28 23:35:49;;;;;;;6.87;2.53;;;;;;;;;;10355116;28;20029;-64
2021/05/28 23:40:50;;;;;;;2.33;1.67;;;;;;;;;;10349673;28;20036;-64
2021/05/28 23:45:48;;;;;;;4.22;2.10;;;;;;;;;;10317229;28;20537;-65
2021/05/28 23:50:58;;;;;;;4.50;1.37;;;;;;;;;;10334098;28;20466;-66
2021/05/28 23:55:56;;;;;;;1.30;0.93;;;;;;;;;;10337559;28;20120;-65
